createdAt,value
2022-08-25T00:00:31.953Z,0.00
2022-08-25T00:01:32.294Z,0.00
2022-08-25T00:02:31.945Z,0.00
2022-08-25T00:03:36.010Z,0.00
2022-08-25T00:04:33.806Z,0.00
2022-08-25T00:05:32.443Z,0.00
2022-08-25T00:06:31.851Z,0.00
2022-08-25T00:07:32.120Z,0.00
2022-08-25T00:08:31.852Z,0.00
2022-08-25T00:09:31.815Z,0.00
2022-08-25T00:10:31.800Z,0.00
2022-08-25T00:11:31.780Z,0.00
2022-08-25T00:12:31.796Z,0.00
2022-08-25T00:13:31.801Z,0.00
2022-08-25T00:14:31.752Z,0.00
2022-08-25T00:15:31.792Z,0.00
2022-08-25T00:16:31.731Z,0.00
2022-08-25T00:17:31.702Z,0.00
2022-08-25T00:18:31.807Z,0.00
2022-08-25T00:19:31.685Z,0.00
2022-08-25T00:20:31.671Z,0.00
2022-08-25T00:21:31.668Z,0.00
2022-08-25T00:22:31.643Z,0.00
2022-08-25T00:23:31.633Z,0.00
2022-08-25T00:24:31.643Z,0.00
2022-08-25T00:25:31.595Z,0.00
2022-08-25T00:26:31.604Z,0.00
2022-08-25T00:27:31.578Z,0.00
2022-08-25T00:28:31.565Z,0.00
2022-08-25T00:29:31.825Z,0.00
2022-08-25T00:30:31.536Z,0.00
2022-08-25T00:31:38.460Z,0.00
2022-08-25T00:32:32.516Z,0.00
2022-08-25T00:33:31.495Z,0.00
2022-08-25T00:34:31.489Z,0.00
2022-08-25T00:35:31.481Z,0.00
2022-08-25T00:36:31.466Z,0.00
2022-08-25T00:37:31.446Z,0.00
2022-08-25T00:38:31.435Z,0.00
2022-08-25T00:39:31.416Z,0.00
2022-08-25T00:40:31.609Z,0.00
2022-08-25T00:41:31.385Z,0.00
2022-08-25T00:42:31.378Z,0.00
2022-08-25T00:43:31.356Z,0.00
2022-08-25T00:44:31.356Z,0.00
2022-08-25T00:45:31.337Z,0.00
2022-08-25T00:46:31.435Z,0.00
2022-08-25T00:47:31.307Z,0.00
2022-08-25T00:48:31.306Z,0.00
2022-08-25T00:49:31.286Z,0.00
2022-08-25T00:50:31.277Z,0.00
2022-08-25T00:51:31.355Z,0.00
2022-08-25T00:52:31.249Z,0.00
2022-08-25T00:53:31.227Z,0.00
2022-08-25T00:54:31.236Z,0.00
2022-08-25T00:55:31.205Z,0.00
2022-08-25T00:56:31.198Z,0.00
2022-08-25T00:57:34.540Z,0.00
2022-08-25T00:58:31.174Z,0.00
2022-08-25T00:59:31.149Z,0.00
2022-08-25T01:00:31.140Z,0.00
2022-08-25T01:01:31.196Z,0.00
2022-08-25T01:02:31.283Z,0.00
2022-08-25T01:03:32.921Z,0.00
2022-08-25T01:04:31.090Z,0.00
2022-08-25T01:05:31.068Z,0.00
2022-08-25T01:06:31.059Z,0.00
2022-08-25T01:07:31.049Z,0.00
2022-08-25T01:08:32.092Z,0.00
2022-08-25T01:09:31.020Z,0.00
2022-08-25T01:10:31.038Z,0.00
2022-08-25T01:11:31.023Z,0.00
2022-08-25T01:12:30.989Z,0.00
2022-08-25T01:13:31.142Z,0.00
2022-08-25T01:14:30.992Z,0.00
2022-08-25T01:15:30.996Z,0.00
2022-08-25T01:16:30.930Z,0.00
2022-08-25T01:17:30.913Z,0.00
2022-08-25T01:18:30.902Z,0.00
2022-08-25T01:19:30.886Z,0.00
2022-08-25T01:20:30.898Z,0.00
2022-08-25T01:21:30.861Z,0.00
2022-08-25T01:22:30.853Z,0.00
2022-08-25T01:23:30.842Z,0.00
2022-08-25T01:24:30.992Z,0.00
2022-08-25T01:25:30.805Z,0.00
2022-08-25T01:26:31.094Z,0.00
2022-08-25T01:27:30.775Z,0.00
2022-08-25T01:28:30.772Z,0.00
2022-08-25T01:29:30.763Z,0.00
2022-08-25T01:30:30.747Z,0.00
2022-08-25T01:31:30.741Z,0.00
2022-08-25T01:32:30.713Z,0.00
2022-08-25T01:33:30.693Z,0.00
2022-08-25T01:34:30.707Z,0.00
2022-08-25T01:35:30.921Z,0.00
2022-08-25T01:36:30.667Z,0.00
2022-08-25T01:37:30.654Z,0.00
2022-08-25T01:38:30.642Z,0.00
2022-08-25T01:39:30.624Z,0.00
2022-08-25T01:40:30.692Z,0.00
2022-08-25T01:41:30.643Z,0.00
2022-08-25T01:42:30.588Z,0.00
2022-08-25T01:43:30.565Z,0.00
2022-08-25T01:44:30.566Z,0.00
2022-08-25T01:45:30.544Z,0.00
2022-08-25T01:46:30.667Z,0.00
2022-08-25T01:47:30.522Z,0.00
2022-08-25T01:48:30.503Z,0.00
2022-08-25T01:49:30.487Z,0.00
2022-08-25T01:50:30.475Z,0.00
2022-08-25T01:51:30.467Z,0.00
2022-08-25T01:52:30.446Z,0.00
2022-08-25T01:53:30.437Z,0.00
2022-08-25T01:54:30.431Z,0.00
2022-08-25T01:55:30.406Z,0.00
2022-08-25T01:56:30.397Z,0.00
2022-08-25T01:57:31.580Z,0.00
2022-08-25T01:58:30.377Z,0.00
2022-08-25T01:59:30.356Z,0.00
2022-08-25T02:00:30.349Z,0.00
2022-08-25T02:01:30.417Z,0.00
2022-08-25T02:02:31.614Z,0.00
2022-08-25T02:03:30.306Z,0.00
2022-08-25T02:04:30.298Z,0.00
2022-08-25T02:05:30.325Z,0.00
2022-08-25T02:06:30.278Z,0.00
2022-08-25T02:07:30.249Z,0.00
2022-08-25T02:08:30.370Z,0.00
2022-08-25T02:09:30.219Z,0.00
2022-08-25T02:10:30.211Z,0.00
2022-08-25T02:11:30.191Z,0.00
2022-08-25T02:12:30.189Z,0.00
2022-08-25T02:13:31.201Z,0.00
2022-08-25T02:14:30.159Z,0.00
2022-08-25T02:15:30.139Z,0.00
2022-08-25T02:16:30.198Z,0.00
2022-08-25T02:17:30.123Z,0.00
2022-08-25T02:18:30.110Z,0.00
2022-08-25T02:19:30.348Z,0.00
2022-08-25T02:20:30.084Z,0.00
2022-08-25T02:21:30.070Z,0.00
2022-08-25T02:22:30.060Z,0.00
2022-08-25T02:23:30.040Z,0.00
2022-08-25T02:24:30.029Z,0.00
2022-08-25T02:25:30.013Z,0.00
2022-08-25T02:26:30.004Z,0.00
2022-08-25T02:27:29.981Z,0.00
2022-08-25T02:32:04.335Z,0.00
2022-08-25T02:33:03.484Z,0.00
2022-08-25T02:34:03.466Z,0.00
2022-08-25T02:35:03.454Z,0.00
2022-08-25T02:36:03.436Z,0.00
2022-08-25T02:37:03.441Z,0.00
2022-08-25T02:38:03.437Z,0.00
2022-08-25T02:39:04.063Z,0.00
2022-08-25T02:40:03.451Z,0.00
2022-08-25T02:41:03.375Z,0.00
2022-08-25T02:42:03.367Z,0.00
2022-08-25T02:43:03.765Z,0.00
2022-08-25T02:44:03.343Z,0.00
2022-08-25T02:45:03.321Z,0.00
2022-08-25T02:46:03.350Z,0.00
2022-08-25T02:47:03.298Z,0.00
2022-08-25T02:48:03.288Z,0.00
2022-08-25T02:49:03.278Z,0.00
2022-08-25T02:50:03.258Z,0.00
2022-08-25T02:51:03.253Z,0.00
2022-08-25T02:52:03.240Z,0.00
2022-08-25T02:53:03.217Z,0.00
2022-08-25T02:54:03.378Z,0.00
2022-08-25T02:55:03.192Z,0.00
2022-08-25T02:56:03.178Z,0.00
2022-08-25T02:57:03.170Z,0.00
2022-08-25T02:58:03.149Z,0.00
2022-08-25T02:59:03.149Z,0.00
2022-08-25T03:00:03.126Z,0.00
2022-08-25T03:01:03.210Z,0.00
2022-08-25T03:02:03.098Z,0.00
2022-08-25T03:03:03.089Z,0.00
2022-08-25T03:04:03.084Z,0.00
2022-08-25T03:05:03.469Z,0.00
2022-08-25T03:06:03.052Z,0.00
2022-08-25T03:07:03.030Z,0.00
2022-08-25T03:08:03.068Z,0.00
2022-08-25T03:09:03.010Z,0.00
2022-08-25T03:10:02.990Z,0.00
2022-08-25T03:11:02.990Z,0.00
2022-08-25T03:12:02.968Z,0.00
2022-08-25T03:13:02.949Z,0.00
2022-08-25T03:14:02.945Z,0.00
2022-08-25T03:15:02.931Z,0.00
2022-08-25T03:16:03.077Z,0.00
2022-08-25T03:17:02.936Z,0.00
2022-08-25T03:18:04.001Z,0.00
2022-08-25T03:19:02.872Z,0.00
2022-08-25T03:20:02.861Z,0.00
2022-08-25T03:21:02.856Z,0.00
2022-08-25T03:22:02.843Z,0.00
2022-08-25T03:23:02.824Z,0.00
2022-08-25T03:24:02.804Z,0.00
2022-08-25T03:25:02.791Z,0.00
2022-08-25T03:26:02.783Z,0.00
2022-08-25T03:27:02.864Z,0.00
2022-08-25T03:28:02.763Z,0.00
2022-08-25T03:29:02.733Z,0.00
2022-08-25T03:30:02.731Z,0.00
2022-08-25T03:31:02.723Z,0.00
2022-08-25T03:32:02.760Z,0.00
2022-08-25T03:33:02.683Z,0.00
2022-08-25T03:34:02.683Z,0.00
2022-08-25T03:35:02.656Z,0.00
2022-08-25T03:36:02.654Z,0.00
2022-08-25T03:37:02.631Z,0.00
2022-08-25T03:38:02.733Z,0.00
2022-08-25T03:39:02.606Z,0.00
2022-08-25T03:40:02.653Z,0.00
2022-08-25T03:41:02.582Z,0.00
2022-08-25T03:42:02.571Z,0.00
2022-08-25T03:43:02.562Z,0.00
2022-08-25T03:44:02.554Z,0.00
2022-08-25T03:45:02.525Z,0.00
2022-08-25T03:46:02.578Z,0.00
2022-08-25T03:47:02.502Z,0.00
2022-08-25T03:48:02.502Z,0.00
2022-08-25T03:49:02.686Z,0.00
2022-08-25T03:50:02.501Z,0.00
2022-08-25T03:51:02.446Z,4.00
2022-08-25T03:52:02.437Z,4.00
2022-08-25T03:53:02.424Z,0.00
2022-08-25T03:54:02.419Z,0.00
2022-08-25T03:55:02.396Z,4.00
2022-08-25T03:56:02.386Z,0.00
2022-08-25T03:57:02.366Z,4.00
2022-08-25T03:58:02.472Z,4.00
2022-08-25T03:59:02.346Z,8.00
2022-08-25T04:00:02.529Z,8.00
2022-08-25T04:01:02.383Z,8.00
2022-08-25T04:02:02.350Z,12.00
2022-08-25T04:03:02.284Z,12.00
2022-08-25T04:04:02.287Z,12.00
2022-08-25T04:05:02.277Z,20.00
2022-08-25T04:06:02.265Z,20.00
2022-08-25T04:07:02.252Z,24.00
2022-08-25T04:08:02.343Z,28.00
2022-08-25T04:09:02.211Z,32.00
2022-08-25T04:10:02.254Z,36.00
2022-08-25T04:11:02.578Z,44.00
2022-08-25T04:12:02.280Z,52.00
2022-08-25T04:13:02.190Z,56.00
2022-08-25T04:14:02.150Z,68.00
2022-08-25T04:15:02.129Z,76.00
2022-08-25T04:16:02.137Z,88.00
2022-08-25T04:17:02.109Z,96.00
2022-08-25T04:18:02.125Z,112.00
2022-08-25T04:19:02.081Z,124.00
2022-08-25T04:20:02.069Z,136.00
2022-08-25T04:21:02.049Z,156.00
2022-08-25T04:22:02.348Z,172.00
2022-08-25T04:23:02.025Z,188.00
2022-08-25T04:24:02.011Z,208.00
2022-08-25T04:25:02.005Z,232.00
2022-08-25T04:26:02.030Z,252.00
2022-08-25T04:27:01.973Z,276.00
2022-08-25T04:28:02.035Z,296.00
2022-08-25T04:29:01.945Z,320.00
2022-08-25T04:30:01.940Z,348.00
2022-08-25T04:31:01.924Z,372.00
2022-08-25T04:32:01.987Z,400.00
2022-08-25T04:33:02.000Z,428.00
2022-08-25T04:34:01.882Z,456.00
2022-08-25T04:35:01.866Z,484.00
2022-08-25T04:36:01.861Z,512.00
2022-08-25T04:37:01.833Z,544.00
2022-08-25T04:38:01.854Z,576.00
2022-08-25T04:39:01.812Z,608.00
2022-08-25T04:40:01.856Z,636.00
2022-08-25T04:41:01.792Z,672.00
2022-08-25T04:42:01.773Z,704.00
2022-08-25T04:43:01.762Z,736.00
2022-08-25T04:44:01.812Z,768.00
2022-08-25T04:45:01.732Z,804.00
2022-08-25T04:46:01.811Z,836.00
2022-08-25T04:47:01.722Z,868.00
2022-08-25T04:48:01.739Z,900.00
2022-08-25T04:49:01.673Z,932.00
2022-08-25T04:50:01.671Z,968.00
2022-08-25T04:51:01.656Z,1000.00
2022-08-25T04:52:01.644Z,1032.00
2022-08-25T04:53:01.625Z,1064.00
2022-08-25T04:54:01.623Z,1096.00
2022-08-25T04:55:01.802Z,1128.00
2022-08-25T04:56:03.833Z,1160.00
2022-08-25T04:57:01.574Z,1192.00
2022-08-25T04:58:01.570Z,1224.00
2022-08-25T04:59:01.555Z,1252.00
2022-08-25T05:00:01.544Z,1288.00
2022-08-25T05:01:01.586Z,1320.00
2022-08-25T05:02:01.516Z,1348.00
2022-08-25T05:03:01.496Z,1380.00
2022-08-25T05:04:01.555Z,1412.00
2022-08-25T05:05:01.464Z,1444.00
2022-08-25T05:06:01.630Z,1468.00
2022-08-25T05:07:01.438Z,1500.00
2022-08-25T05:08:01.436Z,1524.00
2022-08-25T05:09:01.428Z,1552.00
2022-08-25T05:10:01.405Z,1580.00
2022-08-25T05:11:01.389Z,1608.00
2022-08-25T05:12:01.375Z,1636.00
2022-08-25T05:13:01.366Z,1664.00
2022-08-25T05:14:01.356Z,1688.00
2022-08-25T05:15:01.857Z,1716.00
2022-08-25T05:16:01.358Z,1740.00
2022-08-25T05:17:01.410Z,1772.00
2022-08-25T05:18:01.339Z,1796.00
2022-08-25T05:19:01.287Z,1816.00
2022-08-25T05:20:01.289Z,1844.00
2022-08-25T05:21:01.259Z,1864.00
2022-08-25T05:22:01.248Z,1892.00
2022-08-25T05:23:01.237Z,1912.00
2022-08-25T05:24:01.227Z,1936.00
2022-08-25T05:25:01.208Z,1960.00
2022-08-25T05:26:01.198Z,1980.00
2022-08-25T05:27:01.178Z,2004.00
2022-08-25T05:28:01.348Z,2032.00
2022-08-25T05:29:01.159Z,2052.00
2022-08-25T05:30:01.150Z,2076.00
2022-08-25T05:31:01.128Z,2096.00
2022-08-25T05:32:01.179Z,2116.00
2022-08-25T05:33:01.115Z,2136.00
2022-08-25T05:34:01.090Z,2156.00
2022-08-25T05:35:01.077Z,2172.00
2022-08-25T05:36:01.059Z,2188.00
2022-08-25T05:37:01.061Z,2208.00
2022-08-25T05:38:01.034Z,2224.00
2022-08-25T05:39:01.085Z,2248.00
2022-08-25T05:40:01.086Z,2260.00
2022-08-25T05:41:01.000Z,2276.00
2022-08-25T05:42:00.989Z,2292.00
2022-08-25T05:43:00.982Z,2308.00
2022-08-25T05:44:00.962Z,2324.00
2022-08-25T05:45:00.948Z,2340.00
2022-08-25T05:46:00.957Z,2356.00
2022-08-25T05:47:00.921Z,2372.00
2022-08-25T05:48:00.902Z,2392.00
2022-08-25T05:49:00.892Z,2400.00
2022-08-25T05:50:00.971Z,2416.00
2022-08-25T05:51:00.865Z,2436.00
2022-08-25T05:52:00.852Z,2444.00
2022-08-25T05:53:00.831Z,2456.00
2022-08-25T05:54:00.829Z,2468.00
2022-08-25T05:55:00.809Z,2484.00
2022-08-25T05:56:00.802Z,2500.00
2022-08-25T05:57:00.793Z,2516.00
2022-08-25T05:58:00.792Z,2528.00
2022-08-25T05:59:00.752Z,2540.00
2022-08-25T06:00:00.758Z,2556.00
2022-08-25T06:01:01.154Z,2568.00
2022-08-25T06:02:00.727Z,2580.00
2022-08-25T06:03:00.703Z,2592.00
2022-08-25T06:04:00.759Z,2604.00
2022-08-25T06:05:00.674Z,2620.00
2022-08-25T06:06:00.667Z,2632.00
2022-08-25T06:07:00.664Z,2644.00
2022-08-25T06:08:00.654Z,2660.00
2022-08-25T06:09:00.625Z,2672.00
2022-08-25T06:10:00.626Z,2688.00
2022-08-25T06:11:00.607Z,2704.00
2022-08-25T06:12:00.690Z,2720.00
2022-08-25T06:13:00.574Z,2736.00
2022-08-25T06:14:00.563Z,2756.00
2022-08-25T06:15:00.546Z,2772.00
2022-08-25T06:16:00.580Z,2788.00
2022-08-25T06:17:00.524Z,2800.00
2022-08-25T06:18:01.051Z,2808.00
2022-08-25T06:19:00.497Z,2820.00
2022-08-25T06:20:00.478Z,2828.00
2022-08-25T06:21:00.464Z,2840.00
2022-08-25T06:22:00.456Z,2860.00
2022-08-25T06:23:00.828Z,2872.00
2022-08-25T06:24:00.427Z,2888.00
2022-08-25T06:25:00.406Z,2900.00
2022-08-25T06:26:00.410Z,2916.00
2022-08-25T06:27:00.397Z,2924.00
2022-08-25T06:28:00.380Z,2936.00
2022-08-25T06:29:00.366Z,2948.00
2022-08-25T06:30:00.421Z,2956.00
2022-08-25T06:31:01.417Z,2964.00
2022-08-25T06:32:00.328Z,2976.00
2022-08-25T06:33:00.310Z,2988.00
2022-08-25T06:34:00.372Z,3008.00
2022-08-25T06:35:00.289Z,3028.00
2022-08-25T06:36:00.279Z,3036.00
2022-08-25T06:37:00.275Z,3048.00
2022-08-25T06:38:00.280Z,3060.00
2022-08-25T06:39:00.239Z,3064.00
2022-08-25T06:40:00.370Z,3072.00
2022-08-25T06:41:00.200Z,3076.00
2022-08-25T06:42:00.202Z,3080.00
2022-08-25T06:43:00.181Z,3088.00
2022-08-25T06:44:05.054Z,3092.00
2022-08-25T06:45:01.211Z,3096.00
2022-08-25T06:46:00.143Z,3104.00
2022-08-25T06:47:00.177Z,3116.00
2022-08-25T06:48:00.148Z,3120.00
2022-08-25T06:49:00.100Z,3132.00
2022-08-25T06:50:00.107Z,3148.00
2022-08-25T06:51:00.072Z,3164.00
2022-08-25T06:52:00.073Z,3176.00
2022-08-25T06:53:00.062Z,3188.00
2022-08-25T06:54:00.029Z,3196.00
2022-08-25T06:55:00.026Z,3208.00
2022-08-25T06:56:04.529Z,3224.00
2022-08-25T06:57:01.003Z,3236.00
2022-08-25T06:58:00.068Z,3252.00
2022-08-25T06:58:59.973Z,3264.00
2022-08-25T06:59:59.955Z,3280.00
2022-08-25T07:00:59.982Z,3292.00
2022-08-25T07:01:59.969Z,3304.00
2022-08-25T07:02:59.925Z,3312.00
2022-08-25T07:03:59.949Z,3320.00
2022-08-25T07:04:59.902Z,3328.00
2022-08-25T07:05:59.876Z,3344.00
2022-08-25T07:07:00.068Z,3352.00
2022-08-25T07:07:59.875Z,3368.00
2022-08-25T07:08:59.845Z,3376.00
2022-08-25T07:09:59.825Z,3392.00
2022-08-25T07:10:59.820Z,3400.00
2022-08-25T07:11:59.787Z,3416.00
2022-08-25T07:12:59.798Z,3444.00
2022-08-25T07:13:59.772Z,3456.00
2022-08-25T07:15:18.996Z,3456.00
2022-08-25T07:16:00.788Z,3468.00
2022-08-25T07:16:59.747Z,3480.00
2022-08-25T07:18:00.287Z,3500.00
2022-08-25T07:19:00.198Z,3528.00
2022-08-25T07:19:59.689Z,3544.00
2022-08-25T07:20:59.687Z,3564.00
2022-08-25T07:21:59.670Z,3572.00
2022-08-25T07:22:59.709Z,3584.00
2022-08-25T07:23:59.639Z,3612.00
2022-08-25T07:24:59.628Z,3648.00
2022-08-25T07:26:02.964Z,3660.00
2022-08-25T07:27:00.610Z,3688.00
2022-08-25T07:27:59.591Z,3704.00
2022-08-25T07:29:00.034Z,3712.00
2022-08-25T07:29:59.560Z,3720.00
2022-08-25T07:30:59.608Z,3752.00
2022-08-25T07:31:59.544Z,3768.00
2022-08-25T07:33:00.708Z,3788.00
2022-08-25T07:33:59.521Z,3804.00
2022-08-25T07:34:59.499Z,3836.00
2022-08-25T07:35:59.492Z,3860.00
2022-08-25T07:36:59.481Z,3880.00
2022-08-25T07:37:59.463Z,3904.00
2022-08-25T07:38:59.451Z,3920.00
2022-08-25T07:39:59.571Z,3940.00
2022-08-25T07:40:59.431Z,3952.00
2022-08-25T07:41:59.402Z,3960.00
2022-08-25T07:42:59.393Z,3976.00
2022-08-25T07:43:59.384Z,4004.00
2022-08-25T07:44:59.373Z,4020.00
2022-08-25T07:45:59.355Z,4040.00
2022-08-25T07:46:59.383Z,4052.00
2022-08-25T07:47:59.326Z,4076.00
2022-08-25T07:48:59.324Z,4100.00
2022-08-25T07:49:59.311Z,4128.00
2022-08-25T07:51:01.738Z,4148.00
2022-08-25T07:52:04.420Z,4160.00
2022-08-25T07:53:00.320Z,4184.00
2022-08-25T07:53:59.266Z,4204.00
2022-08-25T07:54:59.245Z,4208.00
2022-08-25T07:55:59.249Z,4224.00
2022-08-25T07:56:59.244Z,4252.00
2022-08-25T07:57:59.237Z,4284.00
2022-08-25T07:58:59.186Z,4304.00
2022-08-25T07:59:59.180Z,4312.00
2022-08-25T08:00:59.177Z,4344.00
2022-08-25T08:01:59.284Z,4372.00
2022-08-25T08:02:59.214Z,4384.00
2022-08-25T08:04:02.911Z,4400.00
2022-08-25T08:04:59.118Z,4420.00
2022-08-25T08:05:59.098Z,4440.00
2022-08-25T08:06:59.100Z,4444.00
2022-08-25T08:07:59.071Z,4460.00
2022-08-25T08:08:59.069Z,4500.00
2022-08-25T08:10:25.614Z,4516.00
2022-08-25T08:11:04.865Z,4536.00
2022-08-25T08:12:00.195Z,4564.00
2022-08-25T08:12:59.011Z,4576.00
2022-08-25T08:13:58.988Z,4600.00
2022-08-25T08:14:58.980Z,4616.00
2022-08-25T08:15:59.012Z,4632.00
2022-08-25T08:16:58.962Z,4664.00
2022-08-25T08:17:59.213Z,4688.00
2022-08-25T08:18:58.933Z,4692.00
2022-08-25T08:19:58.910Z,4704.00
2022-08-25T08:20:58.899Z,4724.00
2022-08-25T08:22:02.346Z,4748.00
2022-08-25T08:22:59.111Z,4764.00
2022-08-25T08:23:59.246Z,4800.00
2022-08-25T08:24:58.851Z,4828.00
2022-08-25T08:25:58.832Z,4844.00
2022-08-25T08:26:59.384Z,4864.00
2022-08-25T08:27:58.815Z,4896.00
2022-08-25T08:28:58.795Z,4920.00
2022-08-25T08:29:58.776Z,4928.00
2022-08-25T08:30:58.807Z,4932.00
2022-08-25T08:31:58.754Z,4936.00
2022-08-25T08:33:14.340Z,4960.00
2022-08-25T08:33:59.793Z,4988.00
2022-08-25T08:34:58.725Z,5004.00
2022-08-25T08:35:59.242Z,5048.00
2022-08-25T08:36:58.716Z,5088.00
2022-08-25T08:37:58.674Z,5120.00
2022-08-25T08:38:58.674Z,5148.00
2022-08-25T08:39:58.759Z,5168.00
2022-08-25T08:40:58.654Z,5196.00
2022-08-25T08:42:16.785Z,5216.00
2022-08-25T08:42:59.719Z,5272.00
2022-08-25T08:43:58.618Z,5276.00
2022-08-25T08:45:02.007Z,5288.00
2022-08-25T08:45:58.717Z,5348.00
2022-08-25T08:46:58.568Z,5400.00
2022-08-25T08:47:58.547Z,5444.00
2022-08-25T08:48:58.579Z,5504.00
2022-08-25T08:49:58.528Z,5524.00
2022-08-25T08:50:58.516Z,5568.00
2022-08-25T08:51:58.510Z,5628.00
2022-08-25T08:52:58.487Z,5652.00
2022-08-25T08:53:58.465Z,5680.00
2022-08-25T08:54:58.448Z,5716.00
2022-08-25T08:55:58.510Z,5748.00
2022-08-25T08:56:58.438Z,5792.00
2022-08-25T08:57:58.423Z,5892.00
2022-08-25T08:59:00.510Z,5924.00
2022-08-25T08:59:58.390Z,5928.00
2022-08-25T09:00:58.442Z,5928.00
2022-08-25T09:01:58.423Z,5916.00
2022-08-25T09:02:58.393Z,5948.00
2022-08-25T09:03:58.330Z,5988.00
2022-08-25T09:04:58.327Z,6016.00
2022-08-25T09:05:58.300Z,6016.00
2022-08-25T09:06:58.514Z,6044.00
2022-08-25T09:07:58.281Z,6016.00
2022-08-25T09:08:58.583Z,6136.00
2022-08-25T09:09:58.253Z,6192.00
2022-08-25T09:10:58.252Z,6088.00
2022-08-25T09:11:58.233Z,6148.00
2022-08-25T09:12:58.230Z,6228.00
2022-08-25T09:13:58.212Z,6240.00
2022-08-25T09:14:58.201Z,6212.00
2022-08-25T09:15:58.221Z,6172.00
2022-08-25T09:16:58.173Z,6148.00
2022-08-25T09:17:58.483Z,6224.00
2022-08-25T09:18:58.162Z,6332.00
2022-08-25T09:19:58.133Z,6416.00
2022-08-25T09:20:58.123Z,6372.00
2022-08-25T09:21:58.103Z,6308.00
2022-08-25T09:22:58.095Z,6324.00
2022-08-25T09:23:58.075Z,6312.00
2022-08-25T09:24:58.075Z,6316.00
2022-08-25T09:25:58.055Z,6328.00
2022-08-25T09:26:58.055Z,6272.00
2022-08-25T09:27:58.026Z,6280.00
2022-08-25T09:28:58.189Z,6388.00
2022-08-25T09:29:58.002Z,6520.00
2022-08-25T09:30:58.056Z,6616.00
2022-08-25T09:31:57.975Z,6668.00
2022-08-25T09:32:57.969Z,6640.00
2022-08-25T09:33:57.951Z,6700.00
2022-08-25T09:34:57.937Z,6736.00
2022-08-25T09:35:57.926Z,6776.00
2022-08-25T09:36:57.918Z,6828.00
2022-08-25T09:37:58.430Z,6820.00
2022-08-25T09:38:57.974Z,6888.00
2022-08-25T09:39:58.325Z,7104.00
2022-08-25T09:40:57.859Z,7228.00
2022-08-25T09:41:59.370Z,7188.00
2022-08-25T09:42:58.781Z,7316.00
2022-08-25T09:43:57.819Z,8224.00
2022-08-25T09:44:57.801Z,8704.00
2022-08-25T09:45:57.860Z,8252.00
2022-08-25T09:46:57.790Z,7852.00
2022-08-25T09:47:57.760Z,7740.00
2022-08-25T09:48:57.874Z,7704.00
2022-08-25T09:49:57.738Z,7772.00
2022-08-25T09:50:57.901Z,7748.00
2022-08-25T09:51:57.713Z,7692.00
2022-08-25T09:52:57.701Z,7740.00
2022-08-25T09:53:57.690Z,8116.00
2022-08-25T09:54:57.699Z,8380.00
2022-08-25T09:56:00.579Z,8636.00
2022-08-25T09:56:57.654Z,9204.00
2022-08-25T09:57:57.660Z,27136.00
2022-08-25T09:59:02.373Z,56704.00
2022-08-25T09:59:58.616Z,60736.00
2022-08-25T10:00:57.605Z,62176.00
2022-08-25T10:01:57.818Z,66080.00
2022-08-25T10:02:57.577Z,64416.00
2022-08-25T10:03:57.603Z,63648.00
2022-08-25T10:04:57.613Z,60064.00
2022-08-25T10:05:57.535Z,59488.00
2022-08-25T10:06:57.538Z,61728.00
2022-08-25T10:07:57.517Z,65120.00
2022-08-25T10:08:57.498Z,65088.00
2022-08-25T10:09:57.487Z,69248.00
2022-08-25T10:10:57.481Z,70944.00
2022-08-25T10:11:57.927Z,67424.00
2022-08-25T10:12:57.529Z,67872.00
2022-08-25T10:13:57.427Z,70016.00
2022-08-25T10:14:57.432Z,70496.00
2022-08-25T10:15:57.466Z,68832.00
2022-08-25T10:16:57.413Z,67136.00
2022-08-25T10:17:57.391Z,65888.00
2022-08-25T10:18:57.392Z,69248.00
2022-08-25T10:19:57.360Z,58496.00
2022-08-25T10:20:57.359Z,62688.00
2022-08-25T10:21:57.340Z,67168.00
2022-08-25T10:22:57.331Z,68224.00
2022-08-25T10:23:57.384Z,68160.00
2022-08-25T10:24:57.311Z,64512.00
2022-08-25T10:25:59.201Z,24832.00
2022-08-25T10:26:58.291Z,68576.00
2022-08-25T10:27:57.270Z,65152.00
2022-08-25T10:28:57.261Z,69600.00
2022-08-25T10:29:57.250Z,71552.00
2022-08-25T10:30:57.284Z,67616.00
2022-08-25T10:31:57.213Z,65472.00
2022-08-25T10:32:57.203Z,67808.00
2022-08-25T10:33:57.193Z,66944.00
2022-08-25T10:34:57.303Z,67584.00
2022-08-25T10:35:57.175Z,68512.00
2022-08-25T10:36:57.155Z,68224.00
2022-08-25T10:37:57.144Z,65216.00
2022-08-25T10:38:57.145Z,62016.00
2022-08-25T10:39:57.148Z,67552.00
2022-08-25T10:40:57.116Z,43808.00
2022-08-25T10:41:57.098Z,39872.00
2022-08-25T10:42:57.086Z,62944.00
2022-08-25T10:43:57.068Z,70560.00
2022-08-25T10:44:57.092Z,46496.00
2022-08-25T10:45:57.288Z,18208.00
2022-08-25T10:46:57.053Z,17212.00
2022-08-25T10:47:57.038Z,84416.00
2022-08-25T10:48:57.029Z,82688.00
2022-08-25T10:49:57.010Z,81152.00
2022-08-25T10:50:56.998Z,78304.00
2022-08-25T10:51:56.980Z,80832.00
2022-08-25T10:52:56.985Z,78144.00
2022-08-25T10:53:56.959Z,80000.00
2022-08-25T10:54:56.950Z,71968.00
2022-08-25T10:55:56.933Z,64160.00
